Paradise, CA

9:28 PM PST on December 22, 2014 (GMT -0800)
Bennett | Change Station
CLOSE
Current Station
Personal Weather Station
Location: Paradise, CA
Elevation: 1568 ft
Nearby Weather Stations

Elev 1568 ft 39.74 °N, 121.60 °W | Updated 2 seconds ago

Clear
Clear
52.0 °F
Feels Like 52.0 °F
N
0.0
Wind Variable Wind from North
Gusts 0.0 mph

Today
High -- | Low -- °F
--% Chance of Precip.
Yesterday
High -- | Low -- °F
Precip. -- in
7:24 AM 4:45 PM
New Moon, 2% visible
Pressure 30.19 in
Visibility 10.0 miles
Clouds Clear
Dew Point 38 °F
Humidity 60%
Rainfall 0.01 in
Snow Depth Not available.
UV 0 out of 12
Pollen 3.80 out of 12
Air Quality Not available.
Flu Activity Not available.
METAR KCIC 230247Z 02005KT 10SM SKC 14/11 A3019

More Conditions Fewer Conditions

Pressure 30.19 in
Visibility 10.0 miles
Clouds Clear
Dew Point 38 °F
Humidity 60%
Rainfall 0.01 in
Snow Depth Not available.
UV 0 out of 12
Pollen 3.80 out of 12
Air Quality Not available.
Flu Activity Not available.
METAR KCIC 230247Z 02005KT 10SM SKC 14/11 A3019

More Conditions Fewer Conditions

10-Day Weather Forecast

Almanac

Astronomy

Dec. 22, 2014 Rise Set
Actual Time
Civil Twilight
Nautical Twilight
Astronomical Twilight
Moon
Length of Visible Light
Length of Day
Tomorrow will be .
, % of the Moon is Illuminated

Today's Extremes

State Highs State Lows

Community

WunderPhotos

Upload Photos

1,779,781 photos uploaded!

WunderBlogs® & News

Nearby

Air Quality

  Air Quality AQ Index Pollutant
Not available.

Snow Depth

Station Depth Elevation

Earthquake Activity

City Distance Mag. Time & Date
Minimum magnitude displayed is 2.5.

Coastal Water Temperatures

Place Temperature

Nearby Weather Stations